createdAt,value
2018-05-16T00:01:29.266Z,18.03
2018-05-16T00:03:57.188Z,18.10
2018-05-16T00:06:25.205Z,17.83
2018-05-16T00:08:53.176Z,17.23
2018-05-16T00:11:21.132Z,17.73
2018-05-16T00:13:49.145Z,19.33
2018-05-16T00:16:17.487Z,19.20
2018-05-16T00:18:45.414Z,19.37
2018-05-16T00:21:13.516Z,18.30
2018-05-16T00:23:42.423Z,16.50
2018-05-16T00:26:10.588Z,15.97
2018-05-16T00:28:38.524Z,18.07
2018-05-16T00:31:06.493Z,16.97
2018-05-16T00:33:34.597Z,17.07
2018-05-16T00:36:02.549Z,18.80
2018-05-16T00:38:30.474Z,17.57
2018-05-16T00:40:58.392Z,21.27
2018-05-16T00:43:26.331Z,17.73
2018-05-16T00:45:54.239Z,24.83
2018-05-16T00:48:22.169Z,20.73
2018-05-16T00:51:01.938Z,17.20
2018-05-16T00:53:29.905Z,18.40
2018-05-16T00:55:57.822Z,17.77
2018-05-16T00:58:25.771Z,18.93
2018-05-16T01:00:53.680Z,19.17
2018-05-16T01:03:21.637Z,19.73
2018-05-16T01:05:49.678Z,18.60
2018-05-16T01:08:17.744Z,19.63
2018-05-16T01:10:45.789Z,19.00
2018-05-16T01:13:13.898Z,21.57
2018-05-16T01:15:41.824Z,19.30
2018-05-16T01:18:09.737Z,18.10
2018-05-16T01:20:37.646Z,19.60
2018-05-16T01:23:05.582Z,18.80
2018-05-16T01:25:33.513Z,18.37
2018-05-16T01:28:01.461Z,20.60
2018-05-16T01:30:29.400Z,18.57
2018-05-16T01:32:57.362Z,19.10
2018-05-16T01:35:25.305Z,18.73
2018-05-16T01:37:53.237Z,21.03
2018-05-16T01:40:21.156Z,19.27
2018-05-16T01:42:49.088Z,17.90
2018-05-16T01:45:17.012Z,18.87
2018-05-16T01:47:44.923Z,18.37
2018-05-16T01:50:12.874Z,18.30
2018-05-16T01:52:40.822Z,18.10
2018-05-16T01:55:08.762Z,17.13
2018-05-16T01:57:36.674Z,17.57
2018-05-16T02:00:04.605Z,16.83
2018-05-16T02:02:32.530Z,19.00
2018-05-16T02:05:00.469Z,16.97
2018-05-16T02:07:28.385Z,18.17
2018-05-16T02:09:56.335Z,18.47
2018-05-16T02:12:24.258Z,18.87
2018-05-16T02:14:52.171Z,18.90
2018-05-16T02:17:20.101Z,17.80
2018-05-16T02:19:48.041Z,18.37
2018-05-16T02:22:15.980Z,16.90
2018-05-16T02:24:43.944Z,16.80
2018-05-16T02:27:11.859Z,16.60
2018-05-16T02:29:39.767Z,18.43
2018-05-16T02:32:07.699Z,18.10
2018-05-16T02:34:35.604Z,17.07
2018-05-16T02:37:03.552Z,18.10
2018-05-16T02:39:31.470Z,18.80
2018-05-16T02:41:59.499Z,18.53
2018-05-16T02:44:27.401Z,17.00
2018-05-16T02:46:55.368Z,17.33
2018-05-16T02:49:23.284Z,18.37
2018-05-16T02:51:51.202Z,17.70
2018-05-16T02:54:19.237Z,16.97
2018-05-16T02:56:47.046Z,19.47
2018-05-16T02:59:14.971Z,18.70
2018-05-16T03:01:42.879Z,19.57
2018-05-16T03:04:10.825Z,20.00
2018-05-16T03:06:38.747Z,20.13
2018-05-16T03:09:06.690Z,20.77
2018-05-16T03:11:34.593Z,19.47
2018-05-16T03:14:02.553Z,20.27
2018-05-16T03:16:30.479Z,19.47
2018-05-16T03:18:58.419Z,20.77
2018-05-16T03:21:26.351Z,20.10
2018-05-16T03:23:54.358Z,19.23
2018-05-16T03:26:22.251Z,18.70
2018-05-16T03:28:50.189Z,19.03
2018-05-16T03:31:18.135Z,20.30
2018-05-16T03:33:46.072Z,19.80
2018-05-16T03:36:13.986Z,20.03
2018-05-16T03:38:41.908Z,18.67
2018-05-16T03:41:09.820Z,18.70
2018-05-16T03:43:37.847Z,19.60
2018-05-16T03:46:05.749Z,18.33
2018-05-16T03:48:33.683Z,18.83
2018-05-16T03:51:01.625Z,21.63
2018-05-16T03:53:29.539Z,19.00
2018-05-16T03:55:57.509Z,20.63
2018-05-16T03:58:37.290Z,18.57
2018-05-16T04:01:17.470Z,16.90
2018-05-16T04:06:42.689Z,18.50
2018-05-16T04:09:10.655Z,18.27
2018-05-16T04:11:38.600Z,20.60
2018-05-16T04:14:06.509Z,17.27
2018-05-16T04:16:34.465Z,15.93
2018-05-16T04:19:02.434Z,16.83
2018-05-16T04:21:30.356Z,19.20
2018-05-16T04:23:58.257Z,17.70
2018-05-16T04:26:26.180Z,18.20
2018-05-16T04:28:54.253Z,17.80
2018-05-16T04:31:22.031Z,16.73
2018-05-16T04:33:49.979Z,16.93
2018-05-16T04:36:17.904Z,16.20
2018-05-16T04:38:45.817Z,18.70
2018-05-16T04:41:13.743Z,17.60
2018-05-16T04:43:41.668Z,19.47
2018-05-16T04:46:09.603Z,17.07
2018-05-16T04:48:37.527Z,18.07
2018-05-16T04:51:05.451Z,17.07
2018-05-16T04:53:33.657Z,18.50
2018-05-16T04:56:01.571Z,16.80
2018-05-16T04:58:29.467Z,23.80
2018-05-16T05:00:57.451Z,16.27
2018-05-16T05:03:25.331Z,16.43
2018-05-16T05:05:53.265Z,14.97
2018-05-16T05:08:21.274Z,16.97
2018-05-16T05:10:49.187Z,18.63
2018-05-16T05:13:17.186Z,18.67
2018-05-16T05:15:45.110Z,17.67
2018-05-16T05:18:13.154Z,20.97
2018-05-16T05:20:41.271Z,17.70
2018-05-16T05:23:09.196Z,17.80
2018-05-16T05:25:37.136Z,16.77
2018-05-16T05:28:05.175Z,17.03
2018-05-16T05:30:33.103Z,15.47
2018-05-16T05:33:01.102Z,20.00
2018-05-16T05:35:29.031Z,20.30
2018-05-16T05:37:56.938Z,16.60
2018-05-16T05:40:24.924Z,16.63
2018-05-16T05:42:52.834Z,15.50
2018-05-16T05:45:20.805Z,16.80
2018-05-16T05:47:48.755Z,22.47
2018-05-16T05:50:16.694Z,16.30
2018-05-16T05:52:44.592Z,15.30
2018-05-16T05:55:12.541Z,16.67
2018-05-16T05:57:40.496Z,16.27
2018-05-16T06:00:08.448Z,15.13
2018-05-16T06:02:36.341Z,18.00
2018-05-16T06:05:04.283Z,17.13
2018-05-16T06:07:32.207Z,21.97
2018-05-16T06:10:00.184Z,13.80
2018-05-16T06:12:28.050Z,19.20
2018-05-16T06:14:55.982Z,17.50
2018-05-16T06:17:23.903Z,16.13
2018-05-16T06:19:51.938Z,13.70
2018-05-16T06:22:19.786Z,15.00
2018-05-16T06:24:47.705Z,13.87
2018-05-16T06:27:15.704Z,13.00
2018-05-16T06:29:43.748Z,14.13
2018-05-16T06:32:11.704Z,13.03
2018-05-16T06:34:39.629Z,14.23
2018-05-16T06:37:07.554Z,13.07
2018-05-16T06:39:36.348Z,11.80
2018-05-16T06:42:04.284Z,12.20
2018-05-16T06:44:32.233Z,14.33
2018-05-16T06:47:00.178Z,15.07
2018-05-16T06:49:28.111Z,11.67
2018-05-16T06:51:56.039Z,13.27
2018-05-16T06:54:23.974Z,12.23
2018-05-16T06:56:51.900Z,10.13
2018-05-16T06:59:19.846Z,10.73
2018-05-16T07:01:47.748Z,16.10
2018-05-16T07:04:15.692Z,15.30
2018-05-16T07:06:43.644Z,9.50
2018-05-16T07:09:11.509Z,9.80
2018-05-16T07:11:39.441Z,9.60
2018-05-16T07:14:07.366Z,9.97
2018-05-16T07:16:35.378Z,9.90
2018-05-16T07:19:03.273Z,9.70
2018-05-16T07:21:31.204Z,9.30
2018-05-16T07:23:59.108Z,8.70
2018-05-16T07:26:27.045Z,10.50
2018-05-16T07:28:55.237Z,9.13
2018-05-16T07:31:23.139Z,8.60
2018-05-16T07:33:51.081Z,8.77
2018-05-16T07:36:18.984Z,8.67
2018-05-16T07:38:46.937Z,9.53
2018-05-16T07:41:14.845Z,11.13
2018-05-16T07:43:42.750Z,14.33
2018-05-16T07:46:10.733Z,11.57
2018-05-16T07:48:38.619Z,8.50
2018-05-16T07:51:07.204Z,8.07
2018-05-16T07:53:35.613Z,7.70
2018-05-16T07:56:03.549Z,7.50
2018-05-16T07:58:31.474Z,10.63
2018-05-16T08:00:59.409Z,13.53
2018-05-16T08:03:27.315Z,9.27
2018-05-16T08:05:55.323Z,7.93
2018-05-16T08:08:23.285Z,10.83
2018-05-16T08:10:51.956Z,8.53
2018-05-16T08:13:19.868Z,9.37
2018-05-16T08:15:48.385Z,9.23
2018-05-16T08:18:16.291Z,8.87
2018-05-16T08:20:44.249Z,11.03
2018-05-16T08:23:12.147Z,7.87
2018-05-16T08:25:43.628Z,8.60
2018-05-16T08:28:11.521Z,7.83
2018-05-16T08:30:39.552Z,7.27
2018-05-16T08:33:07.479Z,8.53
2018-05-16T08:35:36.077Z,10.67
2018-05-16T08:38:04.067Z,8.90
2018-05-16T08:40:32.031Z,9.17
2018-05-16T08:42:59.998Z,12.13
2018-05-16T08:45:27.877Z,9.07
2018-05-16T08:47:55.823Z,10.50
2018-05-16T08:50:23.728Z,9.73
2018-05-16T08:52:51.678Z,9.70
2018-05-16T08:55:19.595Z,9.83
2018-05-16T08:57:47.534Z,8.97
2018-05-16T09:00:15.794Z,8.63
2018-05-16T09:02:43.679Z,7.53
2018-05-16T09:05:12.057Z,9.37
2018-05-16T09:07:40.011Z,10.83
2018-05-16T09:10:08.383Z,11.00
2018-05-16T09:12:36.293Z,10.33
2018-05-16T09:15:04.815Z,8.33
2018-05-16T09:17:32.749Z,7.97
2018-05-16T09:20:00.663Z,11.67
2018-05-16T09:22:28.595Z,8.73
2018-05-16T09:24:56.503Z,8.77
2018-05-16T09:27:24.424Z,8.10
2018-05-16T09:29:52.329Z,10.17
2018-05-16T09:32:20.252Z,9.03
2018-05-16T09:34:48.178Z,9.13
2018-05-16T09:37:16.244Z,8.33
2018-05-16T09:39:44.225Z,10.50
2018-05-16T09:42:12.174Z,8.20
2018-05-16T09:44:40.075Z,9.50
2018-05-16T09:47:07.995Z,9.93
2018-05-16T09:49:36.124Z,9.63
2018-05-16T09:52:04.368Z,11.63
2018-05-16T09:54:32.275Z,9.90
2018-05-16T09:57:00.194Z,8.73
2018-05-16T09:59:28.119Z,11.70
2018-05-16T10:01:56.052Z,14.00
2018-05-16T10:04:23.984Z,16.63
2018-05-16T10:06:51.898Z,12.03
2018-05-16T10:09:19.831Z,13.43
2018-05-16T10:11:47.745Z,10.40
2018-05-16T10:14:15.652Z,10.83
2018-05-16T10:16:43.581Z,12.37
2018-05-16T10:19:11.492Z,10.27
2018-05-16T10:21:39.434Z,10.50
2018-05-16T10:24:07.372Z,11.73
2018-05-16T10:26:35.273Z,10.43
2018-05-16T10:29:03.359Z,11.30
2018-05-16T10:31:31.340Z,11.43
2018-05-16T10:33:59.251Z,11.67
2018-05-16T10:36:27.203Z,11.80
2018-05-16T10:38:55.128Z,10.13
2018-05-16T10:41:23.043Z,9.23
2018-05-16T10:43:50.961Z,9.30
2018-05-16T10:46:18.876Z,11.97
2018-05-16T10:48:46.790Z,9.10
2018-05-16T10:51:14.894Z,12.63
2018-05-16T10:53:42.798Z,11.83
2018-05-16T10:56:10.740Z,10.70
2018-05-16T10:58:38.674Z,10.57
2018-05-16T11:01:06.666Z,11.40
2018-05-16T11:03:34.720Z,14.70
2018-05-16T11:06:02.655Z,13.83
2018-05-16T11:08:30.573Z,12.20
2018-05-16T11:10:58.499Z,12.37
2018-05-16T11:13:26.407Z,14.73
2018-05-16T11:15:54.352Z,14.40
2018-05-16T11:18:22.679Z,13.37
2018-05-16T11:20:50.600Z,13.97
2018-05-16T11:23:18.546Z,12.33
2018-05-16T11:25:46.470Z,14.00
2018-05-16T11:28:14.462Z,13.13
2018-05-16T11:30:42.361Z,11.50
2018-05-16T11:33:10.361Z,10.70
2018-05-16T11:35:38.346Z,10.63
2018-05-16T11:38:06.233Z,11.87
2018-05-16T11:40:34.165Z,12.40
2018-05-16T11:43:02.096Z,14.83
2018-05-16T11:45:30.019Z,15.27
2018-05-16T11:47:57.939Z,16.10
2018-05-16T11:50:25.859Z,16.13
2018-05-16T11:52:54.151Z,16.80
2018-05-16T11:55:22.071Z,16.43
2018-05-16T11:57:49.985Z,15.20
2018-05-16T12:00:17.923Z,15.03
2018-05-16T12:02:45.921Z,15.63
2018-05-16T12:05:13.771Z,15.97
2018-05-16T12:07:41.692Z,17.00
2018-05-16T12:10:09.617Z,15.77
2018-05-16T12:12:38.392Z,15.90
2018-05-16T12:15:06.290Z,15.83
2018-05-16T12:17:34.233Z,16.10
2018-05-16T12:20:02.146Z,15.30
2018-05-16T12:22:30.068Z,15.30
2018-05-16T12:24:57.987Z,12.70
2018-05-16T12:27:25.916Z,13.23
2018-05-16T12:29:53.854Z,15.10
2018-05-16T12:32:21.810Z,14.03
2018-05-16T12:34:49.883Z,13.77
2018-05-16T12:37:17.853Z,13.87
2018-05-16T12:39:45.780Z,14.17
2018-05-16T12:42:13.699Z,13.83
2018-05-16T12:44:41.658Z,12.90
2018-05-16T12:47:09.573Z,11.20
2018-05-16T12:49:37.494Z,10.30
2018-05-16T12:52:05.431Z,9.30
2018-05-16T12:54:33.345Z,8.50
2018-05-16T12:57:01.258Z,8.13
2018-05-16T12:59:29.167Z,9.00
2018-05-16T13:01:57.076Z,8.73
2018-05-16T13:04:25.034Z,8.47
2018-05-16T13:06:52.943Z,14.33
2018-05-16T13:09:20.876Z,10.87
2018-05-16T13:11:48.779Z,9.00
2018-05-16T13:14:16.723Z,9.60
2018-05-16T13:16:44.627Z,9.40
2018-05-16T13:19:12.551Z,8.83
2018-05-16T13:21:40.587Z,7.57
2018-05-16T13:24:08.412Z,9.33
2018-05-16T13:26:36.346Z,8.13
2018-05-16T13:29:04.307Z,9.57
2018-05-16T13:31:32.222Z,9.70
2018-05-16T13:34:00.169Z,9.53
2018-05-16T13:36:28.120Z,7.97
2018-05-16T13:38:56.036Z,8.73
2018-05-16T13:41:23.978Z,12.67
2018-05-16T13:43:51.896Z,21.10
2018-05-16T13:46:20.418Z,15.80
2018-05-16T13:48:48.498Z,19.50
2018-05-16T13:51:16.433Z,19.17
2018-05-16T13:53:44.352Z,15.00
2018-05-16T13:56:12.475Z,15.57
2018-05-16T13:58:40.439Z,27.00
2018-05-16T14:01:08.412Z,39.33
2018-05-16T14:03:36.324Z,14.10
2018-05-16T14:06:04.289Z,22.83
2018-05-16T14:08:32.191Z,23.00
2018-05-16T14:11:00.104Z,14.90
2018-05-16T14:13:28.024Z,6.80
2018-05-16T14:15:55.943Z,8.50
2018-05-16T14:18:23.907Z,7.23
2018-05-16T14:20:51.856Z,7.87
2018-05-16T14:23:19.755Z,9.00
2018-05-16T14:25:47.696Z,9.93
2018-05-16T14:28:15.623Z,13.17
2018-05-16T14:30:43.578Z,8.90
2018-05-16T14:33:11.498Z,10.43
2018-05-16T14:35:39.436Z,9.67
2018-05-16T14:38:07.379Z,8.53
2018-05-16T14:40:35.300Z,11.53
2018-05-16T14:43:03.227Z,11.90
2018-05-16T14:45:31.246Z,8.47
2018-05-16T14:47:59.169Z,14.07
2018-05-16T14:50:27.579Z,7.30
2018-05-16T14:52:55.483Z,9.13
2018-05-16T14:55:23.444Z,7.83
2018-05-16T14:57:51.348Z,7.57
2018-05-16T15:00:19.287Z,7.30
2018-05-16T15:02:47.228Z,14.90
2018-05-16T15:05:15.145Z,10.70
2018-05-16T15:07:43.069Z,7.17
2018-05-16T15:10:11.087Z,8.60
2018-05-16T15:12:39.039Z,7.40
2018-05-16T15:15:06.929Z,8.17
2018-05-16T15:17:34.888Z,8.13
2018-05-16T15:20:02.881Z,7.10
2018-05-16T15:22:30.799Z,9.10
2018-05-16T15:24:59.150Z,7.50
2018-05-16T15:27:27.355Z,21.90
2018-05-16T15:29:55.324Z,6.53
2018-05-16T15:32:23.245Z,7.97
2018-05-16T15:34:51.171Z,10.73
2018-05-16T15:37:19.080Z,9.10
2018-05-16T15:39:47.012Z,7.23
2018-05-16T15:42:14.923Z,7.30
2018-05-16T15:44:42.919Z,7.40
2018-05-16T15:47:10.841Z,6.70
2018-05-16T15:49:39.758Z,8.00
2018-05-16T15:52:07.676Z,7.13
2018-05-16T15:54:35.605Z,10.10
2018-05-16T15:57:03.539Z,6.50
2018-05-16T15:59:31.463Z,9.50
2018-05-16T16:01:59.377Z,7.37
2018-05-16T16:04:27.327Z,6.20
2018-05-16T16:06:55.249Z,7.17
2018-05-16T16:09:23.180Z,10.37
2018-05-16T16:11:51.095Z,9.67
2018-05-16T16:14:19.023Z,7.27
2018-05-16T16:16:46.920Z,7.07
2018-05-16T16:19:14.875Z,8.60
2018-05-16T16:21:42.775Z,7.23
2018-05-16T16:24:10.677Z,8.47
2018-05-16T16:26:38.635Z,12.83
2018-05-16T16:29:06.588Z,7.73
2018-05-16T16:31:34.555Z,7.63
2018-05-16T16:34:02.455Z,8.00
2018-05-16T16:36:30.375Z,9.67
2018-05-16T16:38:58.324Z,10.70
2018-05-16T16:41:26.226Z,10.23
2018-05-16T16:43:54.145Z,9.13
2018-05-16T16:46:22.055Z,9.17
2018-05-16T16:48:50.019Z,13.80
2018-05-16T16:51:19.080Z,9.20
2018-05-16T16:53:47.023Z,10.90
2018-05-16T16:56:14.975Z,11.33
2018-05-16T16:58:42.888Z,9.53
2018-05-16T17:01:10.804Z,11.67
2018-05-16T17:03:39.093Z,8.80
2018-05-16T17:06:07.071Z,9.40
2018-05-16T17:08:35.080Z,9.90
2018-05-16T17:11:02.971Z,10.40
2018-05-16T17:13:30.898Z,11.50
2018-05-16T17:15:58.805Z,13.53
2018-05-16T17:18:26.751Z,16.30
2018-05-16T17:20:54.707Z,39.87
2018-05-16T17:23:23.363Z,15.60
2018-05-16T17:25:51.595Z,18.43
2018-05-16T17:28:20.262Z,14.40
2018-05-16T17:30:48.283Z,17.50
2018-05-16T17:33:16.721Z,15.80
2018-05-16T17:35:45.266Z,16.13
2018-05-16T17:38:13.227Z,13.10
2018-05-16T17:40:41.276Z,15.23
2018-05-16T17:43:09.253Z,12.67
2018-05-16T17:45:37.214Z,12.70
2018-05-16T17:48:05.244Z,9.50
2018-05-16T17:50:33.188Z,10.27
2018-05-16T17:53:01.085Z,10.20
2018-05-16T17:55:29.479Z,9.23
2018-05-16T17:57:57.883Z,9.90
2018-05-16T18:00:26.273Z,15.53
2018-05-16T18:02:54.201Z,10.50
2018-05-16T18:05:22.099Z,12.17
2018-05-16T18:07:50.047Z,12.50
2018-05-16T18:10:17.983Z,11.37
2018-05-16T18:12:47.535Z,10.63
2018-05-16T18:15:27.404Z,12.57
2018-05-16T18:17:55.320Z,11.93
2018-05-16T18:20:23.423Z,10.43
2018-05-16T18:22:51.423Z,11.77
2018-05-16T18:25:19.415Z,11.37
2018-05-16T18:27:47.356Z,10.33
2018-05-16T18:30:15.287Z,11.47
2018-05-16T18:32:43.713Z,9.90
2018-05-16T18:35:11.622Z,9.80
2018-05-16T18:37:39.528Z,10.90
2018-05-16T18:40:07.439Z,10.80
2018-05-16T18:42:35.518Z,10.27
2018-05-16T18:45:03.325Z,9.00
2018-05-16T18:47:31.242Z,8.80
2018-05-16T18:49:59.184Z,11.23
2018-05-16T18:52:27.105Z,9.47
2018-05-16T18:54:55.148Z,9.20
2018-05-16T18:57:23.696Z,11.33
2018-05-16T18:59:51.631Z,11.13
2018-05-16T19:02:19.565Z,9.67
2018-05-16T19:04:47.786Z,9.53
2018-05-16T19:07:15.717Z,10.47
2018-05-16T19:09:43.942Z,8.50
2018-05-16T19:12:11.876Z,11.30
2018-05-16T19:14:39.884Z,9.93
2018-05-16T19:17:07.797Z,8.67
2018-05-16T19:19:36.533Z,9.53
2018-05-16T19:22:04.473Z,11.90
2018-05-16T19:24:32.901Z,8.93
2018-05-16T19:27:01.017Z,10.40
2018-05-16T19:29:28.856Z,10.20
2018-05-16T19:31:56.789Z,9.83
2018-05-16T19:34:24.707Z,9.53
2018-05-16T19:36:52.642Z,10.37
2018-05-16T19:39:20.549Z,12.37
2018-05-16T19:41:48.503Z,27.27
2018-05-16T19:44:16.791Z,46.70
2018-05-16T19:46:44.709Z,104.00
2018-05-16T19:49:12.763Z,64.63
2018-05-16T19:51:40.687Z,37.67
2018-05-16T19:54:08.615Z,16.40
2018-05-16T19:56:36.537Z,17.00
2018-05-16T19:59:04.461Z,16.00
2018-05-16T20:01:32.436Z,13.10
2018-05-16T20:04:00.368Z,11.97
2018-05-16T20:06:28.423Z,13.40
2018-05-16T20:08:56.378Z,14.03
2018-05-16T20:11:24.298Z,12.93
2018-05-16T20:13:52.261Z,13.50
2018-05-16T20:16:20.199Z,12.60
2018-05-16T20:18:48.149Z,15.03
2018-05-16T20:21:16.061Z,16.00
2018-05-16T20:23:44.160Z,12.27
2018-05-16T20:26:12.000Z,12.90
2018-05-16T20:28:40.032Z,12.40
2018-05-16T20:31:08.015Z,13.50
2018-05-16T20:33:35.937Z,16.87
2018-05-16T20:36:03.879Z,14.87
2018-05-16T20:38:31.829Z,14.93
2018-05-16T20:40:59.753Z,16.17
2018-05-16T20:43:27.704Z,18.00
2018-05-16T20:45:55.666Z,16.53
2018-05-16T20:48:23.625Z,17.50
2018-05-16T20:50:51.545Z,17.80
2018-05-16T20:53:19.476Z,18.53
2018-05-16T20:55:47.392Z,17.20
2018-05-16T20:58:15.336Z,18.83
2018-05-16T21:00:43.270Z,19.90
2018-05-16T21:03:11.189Z,20.77
2018-05-16T21:05:39.120Z,19.17
2018-05-16T21:08:07.198Z,21.03
2018-05-16T21:10:35.124Z,20.80
2018-05-16T21:13:03.231Z,18.70
2018-05-16T21:15:31.140Z,21.20
2018-05-16T21:17:59.064Z,20.40
2018-05-16T21:20:27.006Z,19.23
2018-05-16T21:22:54.916Z,20.00
2018-05-16T21:25:22.860Z,16.53
2018-05-16T21:27:50.832Z,17.47
2018-05-16T21:30:18.768Z,18.50
2018-05-16T21:32:46.687Z,14.67
2018-05-16T21:35:14.766Z,15.67
2018-05-16T21:37:42.692Z,15.97
2018-05-16T21:40:10.630Z,14.03
2018-05-16T21:42:38.563Z,15.00
2018-05-16T21:45:06.496Z,12.80
2018-05-16T21:47:34.429Z,11.33
2018-05-16T21:50:02.340Z,10.90
2018-05-16T21:52:30.262Z,12.30
2018-05-16T21:54:58.187Z,10.97
2018-05-16T21:57:26.083Z,10.80
2018-05-16T21:59:54.013Z,11.90
2018-05-16T22:02:21.960Z,10.63
2018-05-16T22:04:49.868Z,11.57
2018-05-16T22:07:17.789Z,10.90
2018-05-16T22:09:45.697Z,10.87
2018-05-16T22:12:13.627Z,10.57
2018-05-16T22:14:41.577Z,9.90
2018-05-16T22:17:09.506Z,9.10
2018-05-16T22:19:37.507Z,9.57
2018-05-16T22:22:05.373Z,9.80
2018-05-16T22:24:33.281Z,9.23
2018-05-16T22:27:01.199Z,9.67
2018-05-16T22:29:29.123Z,10.73
2018-05-16T22:32:02.807Z,11.03
2018-05-16T22:34:36.408Z,11.43
2018-05-16T22:37:10.059Z,12.60
2018-05-16T22:39:43.714Z,11.77
2018-05-16T22:42:17.465Z,11.93
2018-05-16T22:44:48.116Z,12.00
2018-05-16T22:47:16.062Z,13.40
2018-05-16T22:49:43.978Z,11.43
2018-05-16T22:52:11.885Z,11.70
2018-05-16T22:54:39.821Z,12.10
2018-05-16T22:57:07.713Z,13.60
2018-05-16T22:59:35.648Z,12.87
2018-05-16T23:02:03.739Z,13.13
2018-05-16T23:04:31.649Z,13.50
2018-05-16T23:07:00.036Z,12.17
2018-05-16T23:09:27.963Z,14.70
2018-05-16T23:11:55.899Z,13.73
2018-05-16T23:14:23.815Z,17.27
2018-05-16T23:16:51.753Z,12.77
2018-05-16T23:19:19.675Z,12.00
2018-05-16T23:21:47.581Z,10.77
2018-05-16T23:24:15.492Z,16.20
2018-05-16T23:26:43.716Z,10.60
2018-05-16T23:29:11.637Z,17.60
2018-05-16T23:31:39.546Z,9.93
2018-05-16T23:34:07.489Z,13.13
2018-05-16T23:36:35.409Z,11.77
2018-05-16T23:39:03.397Z,12.53
2018-05-16T23:41:31.284Z,18.03
2018-05-16T23:43:59.200Z,10.50
2018-05-16T23:46:27.115Z,24.33
2018-05-16T23:48:55.050Z,11.60
2018-05-16T23:51:22.939Z,11.93
2018-05-16T23:53:50.880Z,10.73
2018-05-16T23:56:18.794Z,14.80
2018-05-16T23:58:46.699Z,12.20
